createdAt,value
2022-09-25T00:01:05.210Z,6.49
2022-09-25T00:03:33.067Z,6.42
2022-09-25T00:06:05.559Z,6.28
2022-09-25T00:08:33.710Z,6.16
2022-09-25T00:11:05.498Z,6.33
2022-09-25T00:13:34.250Z,6.20
2022-09-25T00:16:03.333Z,6.28
2022-09-25T00:18:49.920Z,6.30
2022-09-25T00:21:18.309Z,6.10
2022-09-25T00:23:48.105Z,6.22
2022-09-25T00:26:16.511Z,6.05
2022-09-25T00:28:44.389Z,6.23
2022-09-25T00:31:12.975Z,6.52
2022-09-25T00:33:40.564Z,6.16
2022-09-25T00:36:09.554Z,6.14
2022-09-25T00:38:37.958Z,6.30
2022-09-25T00:41:06.579Z,6.24
2022-09-25T00:43:45.187Z,6.26
2022-09-25T00:46:16.849Z,6.37
2022-09-25T00:48:53.764Z,6.20
2022-09-25T00:51:29.974Z,6.22
2022-09-25T00:54:01.434Z,6.17
2022-09-25T00:56:30.556Z,6.08
2022-09-25T00:58:58.704Z,5.94
2022-09-25T01:01:26.211Z,5.83
2022-09-25T01:03:56.282Z,5.84
2022-09-25T01:06:26.560Z,5.95
2022-09-25T01:08:54.786Z,5.84
2022-09-25T01:11:22.223Z,5.92
2022-09-25T01:13:51.243Z,5.90
2022-09-25T01:16:34.629Z,6.16
2022-09-25T01:19:21.299Z,6.06
2022-09-25T01:21:58.827Z,5.99
2022-09-25T01:24:26.735Z,5.92
2022-09-25T01:26:54.145Z,5.82
2022-09-25T01:29:21.628Z,6.02
2022-09-25T01:31:52.262Z,6.01
2022-09-25T01:34:46.084Z,5.84
2022-09-25T01:37:30.224Z,5.87
2022-09-25T01:40:18.427Z,5.81
2022-09-25T01:42:49.597Z,5.87
2022-09-25T01:45:30.743Z,5.75
2022-09-25T01:48:00.060Z,5.84
2022-09-25T01:50:30.071Z,5.84
2022-09-25T01:53:00.627Z,5.82
2022-09-25T01:55:44.065Z,5.92
2022-09-25T01:58:15.407Z,5.93
2022-09-25T02:00:45.074Z,5.88
2022-09-25T02:03:21.518Z,5.81
2022-09-25T02:05:50.874Z,5.82
2022-09-25T02:08:22.500Z,5.87
2022-09-25T02:10:56.212Z,5.83
2022-09-25T02:13:26.675Z,5.75
2022-09-25T02:15:56.691Z,5.78
2022-09-25T02:18:43.602Z,5.80
2022-09-25T02:21:29.696Z,5.73
2022-09-25T02:24:07.030Z,5.73
2022-09-25T02:26:35.690Z,5.74
2022-09-25T02:29:03.604Z,5.77
2022-09-25T02:31:36.026Z,5.79
2022-09-25T02:34:04.101Z,5.90
2022-09-25T02:36:32.602Z,5.82
2022-09-25T02:39:01.303Z,5.81
2022-09-25T02:41:32.178Z,5.79
2022-09-25T02:44:05.705Z,5.70
2022-09-25T02:46:45.898Z,5.72
2022-09-25T02:49:13.358Z,5.67
2022-09-25T02:51:47.297Z,5.71
2022-09-25T02:54:21.472Z,5.80
2022-09-25T02:56:55.523Z,5.67
2022-09-25T02:59:29.747Z,5.52
2022-09-25T03:01:59.076Z,5.66
2022-09-25T03:04:28.095Z,5.74
2022-09-25T03:06:56.808Z,5.63
2022-09-25T03:09:25.536Z,5.69
2022-09-25T03:11:53.286Z,5.61
2022-09-25T03:14:21.118Z,5.64
2022-09-25T03:16:57.180Z,5.68
2022-09-25T03:19:28.817Z,5.73
2022-09-25T03:21:57.096Z,5.65
2022-09-25T03:24:24.596Z,5.61
2022-09-25T03:26:52.211Z,5.63
2022-09-25T03:29:21.296Z,5.61
2022-09-25T03:31:49.194Z,5.66
2022-09-25T03:34:17.546Z,5.66
2022-09-25T03:36:49.709Z,5.74
2022-09-25T03:39:18.211Z,5.76
2022-09-25T03:41:46.132Z,5.75
2022-09-25T03:44:13.778Z,5.67
2022-09-25T03:46:41.325Z,5.76
2022-09-25T03:49:11.011Z,5.61
2022-09-25T03:51:39.243Z,5.65
2022-09-25T03:54:06.788Z,5.71
2022-09-25T03:56:34.806Z,5.71
2022-09-25T04:01:47.785Z,5.70
2022-09-25T04:04:15.648Z,5.68
2022-09-25T04:06:43.133Z,5.67
2022-09-25T04:09:10.613Z,5.72
2022-09-25T04:11:38.748Z,5.78
2022-09-25T04:14:06.308Z,5.74
2022-09-25T04:16:34.148Z,5.75
2022-09-25T04:19:02.016Z,5.69
2022-09-25T04:21:29.560Z,5.79
2022-09-25T04:24:15.337Z,5.76
2022-09-25T04:26:43.106Z,5.73
2022-09-25T04:29:10.647Z,5.73
2022-09-25T04:31:38.230Z,5.80
2022-09-25T04:34:06.194Z,5.86
2022-09-25T04:36:33.714Z,5.92
2022-09-25T04:39:01.194Z,5.91
2022-09-25T04:41:29.010Z,5.87
2022-09-25T04:43:56.486Z,5.92
2022-09-25T04:46:24.002Z,5.94
2022-09-25T04:48:52.034Z,5.97
2022-09-25T04:51:19.513Z,6.06
2022-09-25T04:53:47.583Z,6.14
2022-09-25T04:56:16.574Z,6.13
2022-09-25T04:58:45.175Z,6.09
2022-09-25T05:01:13.118Z,6.14
2022-09-25T05:03:41.213Z,6.18
2022-09-25T05:08:54.498Z,6.23
2022-09-25T05:11:22.515Z,6.28
2022-09-25T05:13:51.624Z,6.33
2022-09-25T05:16:20.084Z,6.33
2022-09-25T05:18:50.109Z,6.44
2022-09-25T05:21:17.586Z,6.52
2022-09-25T05:23:45.561Z,6.59
2022-09-25T05:26:13.135Z,6.65
2022-09-25T05:28:40.599Z,6.79
2022-09-25T05:31:08.483Z,6.85
2022-09-25T05:33:36.124Z,6.93
2022-09-25T05:36:04.587Z,7.02
2022-09-25T05:38:33.477Z,7.06
2022-09-25T05:41:09.079Z,7.05
2022-09-25T05:43:41.140Z,7.21
2022-09-25T05:46:08.969Z,7.29
2022-09-25T05:48:37.235Z,7.36
2022-09-25T05:51:04.852Z,7.55
2022-09-25T05:53:32.591Z,7.75
2022-09-25T05:56:01.586Z,7.87
2022-09-25T05:58:29.584Z,8.06
2022-09-25T06:01:00.459Z,8.16
2022-09-25T06:03:30.937Z,8.33
2022-09-25T06:05:59.318Z,8.60
2022-09-25T06:08:27.311Z,8.80
2022-09-25T06:10:55.489Z,8.88
2022-09-25T06:13:23.876Z,8.99
2022-09-25T06:15:52.932Z,9.12
2022-09-25T06:18:21.904Z,9.33
2022-09-25T06:20:49.824Z,9.37
2022-09-25T06:23:17.732Z,9.49
2022-09-25T06:25:46.571Z,9.37
2022-09-25T06:28:14.029Z,9.40
2022-09-25T06:30:41.527Z,9.48
2022-09-25T06:33:14.393Z,9.43
2022-09-25T06:35:43.499Z,9.34
2022-09-25T06:38:12.099Z,9.26
2022-09-25T06:40:41.579Z,9.50
2022-09-25T06:43:13.808Z,9.45
2022-09-25T06:45:42.501Z,9.71
2022-09-25T06:48:11.542Z,9.53
2022-09-25T06:50:52.732Z,9.73
2022-09-25T06:53:21.149Z,9.85
2022-09-25T06:55:49.899Z,10.02
2022-09-25T06:58:20.907Z,9.99
2022-09-25T07:00:49.513Z,10.08
2022-09-25T07:03:35.644Z,10.52
2022-09-25T07:06:04.648Z,10.38
2022-09-25T07:08:32.492Z,10.22
2022-09-25T07:11:01.813Z,10.58
2022-09-25T07:13:30.707Z,10.52
2022-09-25T07:15:59.261Z,10.82
2022-09-25T07:18:27.829Z,10.85
2022-09-25T07:21:06.578Z,11.56
2022-09-25T07:23:34.389Z,11.36
2022-09-25T07:26:23.416Z,11.66
2022-09-25T07:29:02.922Z,11.58
2022-09-25T07:31:32.197Z,11.26
2022-09-25T07:34:03.154Z,11.03
2022-09-25T07:36:31.022Z,11.64
2022-09-25T07:38:58.534Z,11.46
2022-09-25T07:41:26.077Z,11.40
2022-09-25T07:44:17.650Z,10.87
2022-09-25T07:46:44.948Z,10.45
2022-09-25T07:49:13.371Z,10.32
2022-09-25T07:51:40.990Z,10.10
2022-09-25T07:54:08.622Z,10.11
2022-09-25T07:56:38.560Z,10.30
2022-09-25T07:59:06.313Z,10.15
2022-09-25T08:01:42.581Z,10.12
2022-09-25T08:04:11.679Z,9.87
2022-09-25T08:06:39.493Z,9.66
2022-09-25T08:09:10.422Z,10.15
2022-09-25T08:11:38.825Z,9.94
2022-09-25T08:14:06.474Z,9.71
2022-09-25T08:16:34.172Z,10.48
2022-09-25T08:19:05.416Z,10.78
2022-09-25T08:21:34.756Z,10.56
2022-09-25T08:24:02.560Z,10.26
2022-09-25T08:26:32.900Z,10.70
2022-09-25T08:29:01.545Z,10.27
2022-09-25T08:31:29.084Z,10.80
2022-09-25T08:34:06.004Z,10.95
2022-09-25T08:36:42.983Z,10.38
2022-09-25T08:39:11.011Z,10.26
2022-09-25T08:41:46.458Z,10.60
2022-09-25T08:44:14.373Z,10.95
2022-09-25T08:47:06.719Z,10.46
2022-09-25T08:49:37.506Z,10.65
2022-09-25T08:52:08.032Z,10.01
2022-09-25T08:54:36.508Z,10.17
2022-09-25T08:57:22.641Z,9.96
2022-09-25T09:00:01.327Z,10.12
2022-09-25T09:02:42.828Z,9.66
2022-09-25T09:05:20.859Z,10.66
2022-09-25T09:07:54.500Z,10.43
2022-09-25T09:10:28.602Z,10.65
2022-09-25T09:13:02.083Z,10.43
2022-09-25T09:15:53.372Z,10.63
2022-09-25T09:18:25.002Z,9.80
2022-09-25T09:20:52.945Z,9.61
2022-09-25T09:23:21.993Z,10.70
2022-09-25T09:26:03.495Z,9.98
2022-09-25T09:28:34.635Z,9.65
2022-09-25T09:31:02.479Z,9.83
2022-09-25T09:33:42.345Z,9.86
2022-09-25T09:36:28.568Z,10.20
2022-09-25T09:39:14.969Z,10.04
2022-09-25T09:41:50.431Z,9.57
2022-09-25T09:44:24.929Z,10.10
2022-09-25T09:46:59.885Z,9.61
2022-09-25T09:49:35.648Z,9.91
2022-09-25T09:52:09.792Z,10.18
2022-09-25T09:54:43.419Z,10.01
2022-09-25T09:57:15.815Z,9.62
2022-09-25T10:00:05.224Z,10.67
2022-09-25T10:02:39.516Z,10.21
2022-09-25T10:05:23.990Z,10.73
2022-09-25T10:07:52.282Z,10.40
2022-09-25T10:10:20.683Z,10.24
2022-09-25T10:12:51.124Z,11.09
2022-09-25T10:15:28.366Z,10.60
2022-09-25T10:17:58.284Z,10.97
2022-09-25T10:20:27.511Z,10.85
2022-09-25T10:22:56.951Z,10.62
2022-09-25T10:25:38.599Z,10.43
2022-09-25T10:28:21.834Z,10.02
2022-09-25T10:30:49.857Z,9.58
2022-09-25T10:33:22.650Z,9.83
2022-09-25T10:35:55.155Z,9.56
2022-09-25T10:38:22.956Z,9.77
2022-09-25T10:41:03.291Z,9.49
2022-09-25T10:43:31.107Z,9.54
2022-09-25T10:46:08.592Z,9.50
2022-09-25T10:48:55.963Z,9.27
2022-09-25T10:51:24.280Z,9.30
2022-09-25T10:53:53.014Z,9.29
2022-09-25T10:56:20.874Z,9.42
2022-09-25T10:58:55.344Z,9.81
2022-09-25T11:01:31.088Z,9.93
2022-09-25T11:03:59.192Z,9.35
2022-09-25T11:06:28.273Z,9.42
2022-09-25T11:09:01.705Z,9.72
2022-09-25T11:11:29.695Z,9.43
2022-09-25T11:14:00.205Z,10.12
2022-09-25T11:16:50.730Z,10.23
2022-09-25T11:19:22.648Z,10.86
2022-09-25T11:22:08.964Z,10.46
2022-09-25T11:24:43.772Z,10.41
2022-09-25T11:27:23.116Z,9.70
2022-09-25T11:29:57.238Z,9.55
2022-09-25T11:32:44.975Z,9.36
2022-09-25T11:35:29.891Z,8.93
2022-09-25T11:38:02.780Z,9.27
2022-09-25T11:43:47.213Z,8.62
2022-09-25T11:46:24.696Z,8.78
2022-09-25T11:49:12.556Z,8.98
2022-09-25T11:51:53.241Z,9.61
2022-09-25T11:54:39.649Z,9.53
2022-09-25T11:57:12.339Z,9.82
2022-09-25T11:59:43.395Z,9.64
2022-09-25T12:02:17.562Z,9.86
2022-09-25T12:04:49.769Z,9.96
2022-09-25T12:07:17.365Z,10.28
2022-09-25T12:09:57.473Z,10.65
2022-09-25T12:12:25.410Z,11.13
2022-09-25T12:15:09.454Z,11.07
2022-09-25T12:18:08.032Z,11.06
2022-09-25T12:20:50.599Z,11.23
2022-09-25T12:23:25.682Z,11.02
2022-09-25T12:26:12.756Z,10.85
2022-09-25T12:28:43.222Z,10.78
2022-09-25T12:31:27.445Z,10.84
2022-09-25T12:34:30.616Z,10.67
2022-09-25T12:37:26.729Z,10.52
2022-09-25T12:40:06.665Z,10.42
2022-09-25T12:42:34.524Z,10.49
2022-09-25T12:45:02.058Z,10.47
2022-09-25T12:47:43.396Z,10.39
2022-09-25T12:50:17.111Z,10.48
2022-09-25T12:52:56.486Z,10.36
2022-09-25T12:55:30.400Z,10.17
2022-09-25T13:00:58.443Z,9.96
2022-09-25T13:04:05.243Z,9.81
2022-09-25T13:06:35.951Z,9.70
2022-09-25T13:09:13.420Z,9.52
2022-09-25T13:11:46.451Z,9.51
2022-09-25T13:14:21.595Z,9.41
2022-09-25T13:16:49.579Z,9.20
2022-09-25T13:19:27.784Z,9.07
2022-09-25T13:22:04.139Z,9.01
2022-09-25T13:24:39.551Z,8.95
2022-09-25T13:27:13.568Z,8.91
2022-09-25T13:29:41.903Z,8.84
2022-09-25T13:32:20.541Z,8.79
2022-09-25T13:34:51.451Z,8.73
2022-09-25T13:37:24.299Z,8.73
2022-09-25T13:40:10.346Z,8.68
2022-09-25T13:42:44.362Z,8.60
2022-09-25T13:45:30.669Z,8.51
2022-09-25T13:48:06.854Z,8.45
2022-09-25T13:50:43.048Z,8.46
2022-09-25T13:53:22.669Z,8.54
2022-09-25T13:55:50.243Z,8.31
2022-09-25T14:01:11.181Z,8.52
2022-09-25T14:03:44.874Z,8.41
2022-09-25T14:06:17.905Z,8.34
2022-09-25T14:08:46.967Z,8.33
2022-09-25T14:11:17.017Z,8.31
2022-09-25T14:13:46.963Z,8.17
2022-09-25T14:16:37.913Z,8.13
2022-09-25T14:19:05.880Z,8.02
2022-09-25T14:24:29.385Z,7.83
2022-09-25T14:27:04.345Z,7.96
2022-09-25T14:29:33.330Z,7.80
2022-09-25T14:32:04.229Z,7.97
2022-09-25T14:34:47.063Z,7.94
2022-09-25T14:37:30.401Z,7.92
2022-09-25T14:40:04.065Z,7.90
2022-09-25T14:42:35.024Z,7.94
2022-09-25T14:45:21.100Z,7.55
2022-09-25T14:50:37.946Z,7.44
2022-09-25T14:53:10.766Z,7.34
2022-09-25T14:55:51.404Z,7.41
2022-09-25T14:58:21.998Z,7.34
2022-09-25T15:00:53.012Z,7.22
2022-09-25T15:06:16.180Z,7.32
2022-09-25T15:08:44.617Z,7.33
2022-09-25T15:11:16.639Z,7.34
2022-09-25T15:13:45.596Z,7.28
2022-09-25T15:16:52.766Z,7.28
2022-09-25T15:19:26.034Z,7.24
2022-09-25T15:21:54.418Z,7.17
2022-09-25T15:24:28.129Z,7.20
2022-09-25T15:27:03.058Z,7.22
2022-09-25T15:29:33.709Z,7.21
2022-09-25T15:32:01.397Z,7.17
2022-09-25T15:37:18.183Z,7.00
2022-09-25T15:39:48.470Z,7.06
2022-09-25T15:42:16.643Z,7.05
2022-09-25T15:44:44.728Z,7.04
2022-09-25T15:47:32.109Z,7.08
2022-09-25T15:50:00.242Z,7.10
2022-09-25T15:52:32.829Z,7.08
2022-09-25T15:55:02.179Z,7.11
2022-09-25T15:57:31.541Z,7.05
2022-09-25T16:00:23.123Z,6.91
2022-09-25T16:03:19.142Z,6.95
2022-09-25T16:05:47.947Z,6.95
2022-09-25T16:08:15.916Z,6.90
2022-09-25T16:10:49.719Z,6.74
2022-09-25T16:13:23.033Z,6.77
2022-09-25T16:15:52.276Z,6.74
2022-09-25T16:18:24.979Z,6.75
2022-09-25T16:21:11.014Z,6.77
2022-09-25T16:26:26.569Z,6.77
2022-09-25T16:29:00.176Z,6.72
2022-09-25T16:31:27.912Z,6.77
2022-09-25T16:33:57.699Z,6.78
2022-09-25T16:36:26.322Z,6.66
2022-09-25T16:39:03.122Z,6.74
2022-09-25T16:41:31.291Z,6.77
2022-09-25T16:44:15.674Z,6.76
2022-09-25T16:46:44.968Z,6.67
2022-09-25T16:49:13.235Z,6.71
2022-09-25T16:51:45.708Z,6.75
2022-09-25T16:54:15.627Z,6.73
2022-09-25T16:56:44.125Z,6.73
2022-09-25T16:59:23.001Z,6.72
2022-09-25T17:01:56.062Z,6.71
2022-09-25T17:04:27.717Z,6.69
2022-09-25T17:06:58.423Z,6.65
2022-09-25T17:09:26.594Z,6.64
2022-09-25T17:11:57.869Z,6.66
2022-09-25T17:14:27.341Z,6.62
2022-09-25T17:16:55.809Z,6.53
2022-09-25T17:19:23.326Z,6.49
2022-09-25T17:21:52.215Z,6.50
2022-09-25T17:24:24.080Z,6.38
2022-09-25T17:26:52.318Z,6.41
2022-09-25T17:29:20.618Z,6.37
2022-09-25T17:31:48.185Z,6.34
2022-09-25T17:34:28.703Z,6.43
2022-09-25T17:36:58.155Z,6.25
2022-09-25T17:39:26.019Z,6.24
2022-09-25T17:41:56.163Z,6.30
2022-09-25T17:44:23.892Z,6.40
2022-09-25T17:46:52.245Z,6.35
2022-09-25T17:49:19.817Z,6.42
2022-09-25T17:51:47.974Z,6.50
2022-09-25T17:54:18.195Z,6.49
2022-09-25T17:56:46.584Z,6.48
2022-09-25T17:59:14.942Z,6.41
2022-09-25T18:01:42.880Z,6.19
2022-09-25T18:04:22.370Z,6.16
2022-09-25T18:06:50.478Z,6.17
2022-09-25T18:09:18.654Z,6.21
2022-09-25T18:11:46.389Z,6.29
2022-09-25T18:14:14.870Z,6.27
2022-09-25T18:16:43.580Z,6.35
2022-09-25T18:19:39.267Z,6.42
2022-09-25T18:22:25.733Z,6.43
2022-09-25T18:24:57.045Z,6.47
2022-09-25T18:27:29.785Z,6.47
2022-09-25T18:29:58.005Z,6.47
2022-09-25T18:32:25.943Z,6.47
2022-09-25T18:34:53.428Z,6.45
2022-09-25T18:37:21.115Z,6.43
2022-09-25T18:39:48.927Z,6.46
2022-09-25T18:42:16.414Z,6.49
2022-09-25T18:44:43.916Z,6.48
2022-09-25T18:47:11.951Z,6.46
2022-09-25T18:49:42.602Z,6.43
2022-09-25T18:52:11.780Z,6.45
2022-09-25T18:54:42.420Z,6.45
2022-09-25T18:57:11.116Z,6.45
2022-09-25T18:59:39.184Z,6.44
2022-09-25T19:02:08.115Z,6.50
2022-09-25T19:04:36.729Z,6.52
2022-09-25T19:07:04.672Z,6.53
2022-09-25T19:09:32.491Z,6.50
2022-09-25T19:11:59.969Z,6.45
2022-09-25T19:14:27.761Z,6.44
2022-09-25T19:16:55.556Z,6.44
2022-09-25T19:19:23.127Z,6.44
2022-09-25T19:21:51.091Z,6.44
2022-09-25T19:24:18.614Z,6.42
2022-09-25T19:26:46.175Z,6.41
2022-09-25T19:29:16.213Z,6.42
2022-09-25T19:31:45.527Z,6.43
2022-09-25T19:34:13.096Z,6.43
2022-09-25T19:36:41.054Z,6.43
2022-09-25T19:39:08.638Z,6.43
2022-09-25T19:41:38.246Z,6.44
2022-09-25T19:44:12.817Z,6.40
2022-09-25T19:46:42.342Z,6.39
2022-09-25T19:49:11.195Z,6.37
2022-09-25T19:51:39.072Z,6.37
2022-09-25T19:54:07.770Z,6.41
2022-09-25T19:56:41.009Z,6.43
2022-09-25T19:59:09.994Z,6.42
2022-09-25T20:01:38.618Z,6.44
2022-09-25T20:04:08.379Z,6.42
2022-09-25T20:06:37.229Z,6.47
2022-09-25T20:09:05.643Z,6.45
2022-09-25T20:11:34.965Z,6.46
2022-09-25T20:14:03.622Z,6.44
2022-09-25T20:16:31.282Z,6.43
2022-09-25T20:19:00.528Z,6.42
2022-09-25T20:21:28.703Z,6.43
2022-09-25T20:23:57.671Z,6.43
2022-09-25T20:26:26.581Z,6.42
2022-09-25T20:31:38.475Z,6.45
2022-09-25T20:34:06.130Z,6.43
2022-09-25T20:36:33.666Z,6.42
2022-09-25T20:39:01.545Z,6.41
2022-09-25T20:41:29.188Z,6.42
2022-09-25T20:43:57.666Z,6.42
2022-09-25T20:46:26.701Z,6.42
2022-09-25T20:48:57.732Z,6.41
2022-09-25T20:51:27.681Z,6.41
2022-09-25T20:53:56.518Z,6.38
2022-09-25T20:56:24.445Z,6.39
2022-09-25T20:58:53.785Z,6.40
2022-09-25T21:01:27.556Z,6.40
2022-09-25T21:03:55.674Z,6.38
2022-09-25T21:06:24.537Z,6.37
2022-09-25T21:09:02.066Z,6.37
2022-09-25T21:11:31.047Z,6.37
2022-09-25T21:13:59.455Z,6.37
2022-09-25T21:16:28.179Z,6.33
2022-09-25T21:18:57.712Z,6.24
2022-09-25T21:21:25.929Z,6.20
2022-09-25T21:23:54.457Z,6.23
2022-09-25T21:26:23.591Z,6.17
2022-09-25T21:28:51.975Z,6.18
2022-09-25T21:31:20.706Z,6.20
2022-09-25T21:33:50.806Z,6.23
2022-09-25T21:36:18.940Z,6.18
2022-09-25T21:38:46.450Z,6.19
2022-09-25T21:41:15.652Z,6.16
2022-09-25T21:43:43.565Z,6.13
2022-09-25T21:46:13.205Z,6.15
2022-09-25T21:48:45.049Z,6.15
2022-09-25T21:51:13.312Z,6.13
2022-09-25T21:53:41.645Z,6.13
2022-09-25T21:56:10.488Z,6.15
2022-09-25T21:58:37.936Z,6.20
2022-09-25T22:01:26.221Z,6.18
2022-09-25T22:03:56.009Z,6.11
2022-09-25T22:06:26.561Z,6.04
2022-09-25T22:08:56.474Z,6.04
2022-09-25T22:11:23.998Z,6.01
2022-09-25T22:13:51.846Z,6.00
2022-09-25T22:16:23.901Z,5.97
2022-09-25T22:19:20.752Z,5.97
2022-09-25T22:21:49.741Z,5.97
2022-09-25T22:24:17.386Z,5.96
2022-09-25T22:26:46.208Z,5.98
2022-09-25T22:29:14.530Z,6.00
2022-09-25T22:31:45.109Z,6.01
2022-09-25T22:34:32.846Z,5.95
2022-09-25T22:37:00.726Z,6.03
2022-09-25T22:39:28.600Z,6.04
2022-09-25T22:41:56.957Z,6.03
2022-09-25T22:44:25.166Z,6.01
2022-09-25T22:46:52.784Z,6.01
2022-09-25T22:49:20.373Z,6.02
2022-09-25T22:51:48.448Z,5.95
2022-09-25T22:54:16.094Z,5.97
2022-09-25T22:56:44.071Z,5.99
2022-09-25T22:59:13.397Z,5.95
2022-09-25T23:01:42.833Z,5.97
2022-09-25T23:04:11.791Z,5.97
2022-09-25T23:06:40.142Z,5.98
2022-09-25T23:09:09.368Z,5.95
2022-09-25T23:11:36.894Z,5.90
2022-09-25T23:14:09.260Z,5.82
2022-09-25T23:16:37.083Z,5.77
2022-09-25T23:19:05.156Z,5.79
2022-09-25T23:21:32.887Z,5.81
2022-09-25T23:24:01.584Z,5.84
2022-09-25T23:26:29.754Z,5.82
2022-09-25T23:28:58.370Z,5.80
2022-09-25T23:31:26.159Z,5.79
2022-09-25T23:33:54.162Z,5.81
2022-09-25T23:36:23.124Z,5.83
2022-09-25T23:38:51.678Z,5.85
2022-09-25T23:41:23.863Z,5.89
2022-09-25T23:43:52.061Z,5.92
2022-09-25T23:46:20.845Z,5.91
2022-09-25T23:48:48.737Z,5.94
2022-09-25T23:51:16.969Z,5.93
2022-09-25T23:53:47.443Z,5.92
2022-09-25T23:56:16.330Z,5.94
2022-09-25T23:58:44.323Z,5.93
